createdAt,value
2018-08-19T00:00:55.839Z,0
2018-08-19T00:01:57.368Z,0
2018-08-19T00:02:59.001Z,0
2018-08-19T00:04:00.506Z,0
2018-08-19T00:05:02.133Z,0
2018-08-19T00:06:03.728Z,0
2018-08-19T00:07:05.415Z,0
2018-08-19T00:08:06.933Z,0
2018-08-19T00:09:08.585Z,0
2018-08-19T00:10:10.166Z,0
2018-08-19T00:11:11.782Z,0
2018-08-19T00:12:13.364Z,0
2018-08-19T00:13:14.873Z,0
2018-08-19T00:14:16.504Z,0
2018-08-19T00:15:18.035Z,0
2018-08-19T00:16:19.629Z,0
2018-08-19T00:17:21.212Z,0
2018-08-19T00:18:22.827Z,0
2018-08-19T00:19:24.393Z,0
2018-08-19T00:20:25.950Z,0
2018-08-19T00:21:27.486Z,0
2018-08-19T00:22:29.028Z,0
2018-08-19T00:23:30.677Z,0
2018-08-19T00:24:32.251Z,0
2018-08-19T00:25:33.709Z,0
2018-08-19T00:26:35.414Z,0
2018-08-19T00:27:36.916Z,0
2018-08-19T00:28:38.482Z,0
2018-08-19T00:29:40.138Z,0
2018-08-19T00:30:41.699Z,0
2018-08-19T00:31:43.324Z,0
2018-08-19T00:32:44.882Z,0
2018-08-19T00:33:46.358Z,0
2018-08-19T00:34:47.953Z,0
2018-08-19T00:35:49.519Z,0
2018-08-19T00:36:51.064Z,0
2018-08-19T00:37:52.620Z,0
2018-08-19T00:38:54.227Z,0
2018-08-19T00:39:55.741Z,0
2018-08-19T00:40:57.342Z,0
2018-08-19T00:41:58.919Z,0
2018-08-19T00:43:00.491Z,0
2018-08-19T00:44:02.116Z,0
2018-08-19T00:45:03.683Z,0
2018-08-19T00:46:05.220Z,0
2018-08-19T00:47:07.031Z,0
2018-08-19T00:48:08.551Z,0
2018-08-19T00:49:10.139Z,0
2018-08-19T00:50:11.689Z,0
2018-08-19T00:51:13.196Z,0
2018-08-19T00:52:14.773Z,0
2018-08-19T00:53:16.320Z,0
2018-08-19T00:54:17.853Z,0
2018-08-19T00:55:19.441Z,0
2018-08-19T00:56:21.118Z,0
2018-08-19T00:57:22.649Z,0
2018-08-19T00:58:24.204Z,0
2018-08-19T00:59:25.823Z,0
2018-08-19T01:00:27.406Z,0
2018-08-19T01:01:28.947Z,0
2018-08-19T01:02:30.596Z,0
2018-08-19T01:03:32.192Z,0
2018-08-19T01:04:33.784Z,0
2018-08-19T01:05:35.412Z,0
2018-08-19T01:06:37.000Z,0
2018-08-19T01:07:38.569Z,0
2018-08-19T01:08:40.189Z,0
2018-08-19T01:09:41.786Z,0
2018-08-19T01:10:43.337Z,0
2018-08-19T01:11:44.936Z,0
2018-08-19T01:12:46.467Z,0
2018-08-19T01:13:48.060Z,0
2018-08-19T01:14:49.729Z,0
2018-08-19T01:15:51.302Z,0
2018-08-19T01:16:52.697Z,0
2018-08-19T01:17:54.114Z,0
2018-08-19T01:18:55.757Z,0
2018-08-19T01:19:57.315Z,0
2018-08-19T01:20:58.921Z,0
2018-08-19T01:22:00.486Z,0
2018-08-19T01:23:02.130Z,0
2018-08-19T01:24:03.672Z,0
2018-08-19T01:25:05.252Z,0
2018-08-19T01:26:06.838Z,0
2018-08-19T01:27:08.396Z,0
2018-08-19T01:28:10.012Z,0
2018-08-19T01:29:11.732Z,0
2018-08-19T01:30:13.269Z,0
2018-08-19T01:31:14.849Z,0
2018-08-19T01:32:16.459Z,0
2018-08-19T01:33:18.013Z,0
2018-08-19T01:34:19.560Z,0
2018-08-19T01:35:21.155Z,0
2018-08-19T01:36:22.749Z,0
2018-08-19T01:37:24.332Z,0
2018-08-19T01:38:25.862Z,0
2018-08-19T01:39:27.521Z,0
2018-08-19T01:40:29.103Z,0
2018-08-19T01:41:30.717Z,0
2018-08-19T01:42:32.362Z,0
2018-08-19T01:43:33.928Z,0
2018-08-19T01:44:35.461Z,0
2018-08-19T01:45:37.136Z,0
2018-08-19T01:46:38.694Z,0
2018-08-19T01:47:40.330Z,0
2018-08-19T01:48:41.918Z,0
2018-08-19T01:49:43.445Z,0
2018-08-19T01:50:44.956Z,0
2018-08-19T01:51:46.537Z,0
2018-08-19T01:52:48.109Z,0
2018-08-19T01:53:49.621Z,0
2018-08-19T01:54:51.238Z,0
2018-08-19T01:55:52.907Z,0
2018-08-19T01:56:54.401Z,0
2018-08-19T01:57:56.047Z,0
2018-08-19T01:58:57.564Z,0
2018-08-19T01:59:59.134Z,0
2018-08-19T02:01:00.784Z,0
2018-08-19T02:02:02.322Z,0
2018-08-19T02:03:03.949Z,0
2018-08-19T02:04:05.505Z,0
2018-08-19T02:05:07.158Z,0
2018-08-19T02:06:08.658Z,0
2018-08-19T02:07:10.292Z,0
2018-08-19T02:08:11.874Z,0
2018-08-19T02:09:13.489Z,0
2018-08-19T02:10:15.052Z,0
2018-08-19T02:11:16.631Z,0
2018-08-19T02:12:18.273Z,0
2018-08-19T02:13:19.784Z,0
2018-08-19T02:14:21.362Z,0
2018-08-19T02:15:23.013Z,0
2018-08-19T02:16:24.555Z,0
2018-08-19T02:17:26.210Z,0
2018-08-19T02:18:27.789Z,0
2018-08-19T02:19:29.465Z,0
2018-08-19T02:20:31.015Z,0
2018-08-19T02:21:32.565Z,0
2018-08-19T02:22:34.131Z,0
2018-08-19T02:23:35.817Z,0
2018-08-19T02:24:37.363Z,0
2018-08-19T02:25:38.873Z,0
2018-08-19T02:26:40.559Z,0
2018-08-19T02:27:42.105Z,0
2018-08-19T02:28:43.525Z,0
2018-08-19T02:29:45.144Z,0
2018-08-19T02:30:46.655Z,0
2018-08-19T02:31:48.050Z,0
2018-08-19T02:32:49.692Z,0
2018-08-19T02:33:51.093Z,0
2018-08-19T02:34:52.506Z,0
2018-08-19T02:35:54.116Z,0
2018-08-19T02:36:55.487Z,0
2018-08-19T02:37:57.144Z,0
2018-08-19T02:38:58.768Z,0
2018-08-19T02:40:00.285Z,0
2018-08-19T02:41:01.851Z,0
2018-08-19T02:42:03.451Z,0
2018-08-19T02:43:05.007Z,0
2018-08-19T02:44:06.713Z,0
2018-08-19T02:45:08.105Z,0
2018-08-19T02:46:09.755Z,0
2018-08-19T02:47:11.318Z,0
2018-08-19T02:48:12.774Z,0
2018-08-19T02:49:14.187Z,0
2018-08-19T02:50:15.658Z,0
2018-08-19T02:51:17.088Z,0
2018-08-19T02:52:18.806Z,0
2018-08-19T02:53:20.174Z,0
2018-08-19T02:54:21.634Z,0
2018-08-19T02:55:23.211Z,0
2018-08-19T02:56:24.869Z,0
2018-08-19T02:57:26.503Z,0
2018-08-19T02:58:28.149Z,0
2018-08-19T02:59:29.759Z,0
2018-08-19T03:00:31.271Z,0
2018-08-19T03:01:32.742Z,0
2018-08-19T03:02:34.153Z,0
2018-08-19T03:03:35.757Z,0
2018-08-19T03:04:37.447Z,0
2018-08-19T03:05:39.050Z,0
2018-08-19T03:06:40.676Z,0
2018-08-19T03:07:42.255Z,0
2018-08-19T03:08:45.475Z,0
2018-08-19T03:09:47.039Z,0
2018-08-19T03:10:48.966Z,0
2018-08-19T03:11:51.342Z,0
2018-08-19T03:12:52.875Z,0
2018-08-19T03:13:54.525Z,0
2018-08-19T03:14:56.081Z,0
2018-08-19T03:15:57.644Z,0
2018-08-19T03:16:59.354Z,0
2018-08-19T03:18:00.876Z,0
2018-08-19T03:19:02.443Z,0
2018-08-19T03:20:04.087Z,0
2018-08-19T03:21:05.613Z,0
2018-08-19T03:22:07.259Z,0
2018-08-19T03:23:08.817Z,0
2018-08-19T03:24:10.458Z,0
2018-08-19T03:25:11.921Z,0
2018-08-19T03:26:13.509Z,0
2018-08-19T03:27:15.162Z,0
2018-08-19T03:28:16.718Z,0
2018-08-19T03:29:18.314Z,0
2018-08-19T03:30:20.060Z,0
2018-08-19T03:31:21.518Z,0
2018-08-19T03:32:23.018Z,0
2018-08-19T03:33:24.417Z,0
2018-08-19T03:34:26.025Z,0
2018-08-19T03:35:27.438Z,0
2018-08-19T03:36:28.857Z,0
2018-08-19T03:37:30.451Z,0
2018-08-19T03:38:32.096Z,0
2018-08-19T03:39:33.491Z,0
2018-08-19T03:40:35.059Z,0
2018-08-19T03:41:36.691Z,0
2018-08-19T03:42:38.249Z,0
2018-08-19T03:43:39.821Z,0
2018-08-19T03:44:41.467Z,0
2018-08-19T03:45:43.107Z,0
2018-08-19T03:46:44.518Z,0
2018-08-19T03:47:46.141Z,0
2018-08-19T03:48:47.621Z,0
2018-08-19T03:49:49.301Z,0
2018-08-19T03:50:50.859Z,0
2018-08-19T03:51:52.502Z,0
2018-08-19T03:52:54.015Z,0
2018-08-19T03:53:55.709Z,0
2018-08-19T03:54:57.231Z,0
2018-08-19T03:55:58.822Z,0
2018-08-19T03:57:00.365Z,0
2018-08-19T03:58:01.951Z,0
2018-08-19T03:59:03.538Z,0
2018-08-19T04:00:05.105Z,0
2018-08-19T04:01:06.715Z,0
2018-08-19T04:02:08.261Z,0
2018-08-19T04:03:09.885Z,4
2018-08-19T04:04:11.519Z,4
2018-08-19T04:05:13.118Z,0
2018-08-19T04:06:15.893Z,4
2018-08-19T04:07:17.407Z,4
2018-08-19T04:08:18.981Z,0
2018-08-19T04:09:20.627Z,4
2018-08-19T04:10:22.132Z,4
2018-08-19T04:11:23.759Z,8
2018-08-19T04:12:25.421Z,4
2018-08-19T04:13:26.933Z,8
2018-08-19T04:14:28.534Z,8
2018-08-19T04:15:30.126Z,8
2018-08-19T04:16:31.687Z,8
2018-08-19T04:17:33.317Z,8
2018-08-19T04:18:34.889Z,8
2018-08-19T04:19:36.498Z,12
2018-08-19T04:20:38.044Z,12
2018-08-19T04:21:39.716Z,16
2018-08-19T04:22:41.272Z,20
2018-08-19T04:23:42.895Z,16
2018-08-19T04:24:44.435Z,20
2018-08-19T04:25:46.075Z,20
2018-08-19T04:26:47.638Z,24
2018-08-19T04:27:49.155Z,24
2018-08-19T04:28:50.770Z,32
2018-08-19T04:29:52.171Z,32
2018-08-19T04:30:53.763Z,32
2018-08-19T04:31:55.170Z,36
2018-08-19T04:32:56.875Z,40
2018-08-19T04:33:58.438Z,44
2018-08-19T04:35:00.044Z,48
2018-08-19T04:36:01.698Z,52
2018-08-19T04:37:03.300Z,56
2018-08-19T04:38:04.828Z,60
2018-08-19T04:39:06.372Z,60
2018-08-19T04:40:07.948Z,68
2018-08-19T04:41:09.918Z,72
2018-08-19T04:42:11.575Z,76
2018-08-19T04:43:13.073Z,80
2018-08-19T04:44:14.550Z,84
2018-08-19T04:45:16.043Z,84
2018-08-19T04:46:17.601Z,88
2018-08-19T04:47:18.987Z,96
2018-08-19T04:48:20.605Z,100
2018-08-19T04:49:22.170Z,104
2018-08-19T04:50:23.684Z,112
2018-08-19T04:51:26.259Z,112
2018-08-19T04:52:29.625Z,120
2018-08-19T04:53:31.433Z,124
2018-08-19T04:54:35.515Z,128
2018-08-19T04:55:36.749Z,132
2018-08-19T04:56:38.370Z,136
2018-08-19T04:57:39.936Z,140
2018-08-19T04:58:41.571Z,144
2018-08-19T04:59:42.999Z,152
2018-08-19T05:00:44.624Z,156
2018-08-19T05:01:46.276Z,160
2018-08-19T05:02:47.925Z,168
2018-08-19T05:03:49.597Z,172
2018-08-19T05:04:51.128Z,176
2018-08-19T05:05:53.127Z,180
2018-08-19T05:06:54.744Z,188
2018-08-19T05:07:56.716Z,192
2018-08-19T05:08:58.143Z,200
2018-08-19T05:09:59.924Z,204
2018-08-19T05:11:01.479Z,212
2018-08-19T05:12:03.098Z,216
2018-08-19T05:13:04.700Z,220
2018-08-19T05:14:06.147Z,224
2018-08-19T05:15:07.655Z,232
2018-08-19T05:16:09.208Z,236
2018-08-19T05:17:10.626Z,244
2018-08-19T05:18:12.164Z,244
2018-08-19T05:19:13.886Z,252
2018-08-19T05:20:15.450Z,260
2018-08-19T05:21:16.999Z,268
2018-08-19T05:22:18.846Z,268
2018-08-19T05:23:20.391Z,276
2018-08-19T05:24:21.998Z,280
2018-08-19T05:25:23.615Z,292
2018-08-19T05:26:25.441Z,300
2018-08-19T05:27:27.208Z,304
2018-08-19T05:28:28.992Z,312
2018-08-19T05:29:30.444Z,320
2018-08-19T05:30:32.187Z,328
2018-08-19T05:31:33.860Z,332
2018-08-19T05:32:35.330Z,344
2018-08-19T05:33:37.101Z,360
2018-08-19T05:34:38.695Z,364
2018-08-19T05:35:40.244Z,372
2018-08-19T05:36:42.027Z,380
2018-08-19T05:37:43.550Z,392
2018-08-19T05:38:45.296Z,396
2018-08-19T05:39:46.895Z,412
2018-08-19T05:40:48.595Z,432
2018-08-19T05:41:50.187Z,448
2018-08-19T05:42:51.905Z,456
2018-08-19T05:43:53.459Z,476
2018-08-19T05:44:55.053Z,480
2018-08-19T05:45:56.448Z,484
2018-08-19T05:46:57.895Z,468
2018-08-19T05:47:59.361Z,468
2018-08-19T05:49:00.756Z,480
2018-08-19T05:50:02.181Z,484
2018-08-19T05:51:03.679Z,488
2018-08-19T05:52:05.113Z,492
2018-08-19T05:53:06.533Z,496
2018-08-19T05:54:08.190Z,500
2018-08-19T05:55:09.572Z,508
2018-08-19T05:56:11.097Z,512
2018-08-19T05:57:12.914Z,516
2018-08-19T05:58:14.542Z,520
2018-08-19T05:59:16.101Z,524
2018-08-19T06:00:17.804Z,536
2018-08-19T06:01:19.386Z,540
2018-08-19T06:02:21.009Z,552
2018-08-19T06:03:22.707Z,564
2018-08-19T06:04:24.280Z,568
2018-08-19T06:05:25.885Z,568
2018-08-19T06:06:27.331Z,576
2018-08-19T06:07:28.907Z,588
2018-08-19T06:08:30.580Z,596
2018-08-19T06:09:32.237Z,608
2018-08-19T06:10:34.236Z,612
2018-08-19T06:11:35.964Z,628
2018-08-19T06:12:37.364Z,632
2018-08-19T06:13:38.783Z,640
2018-08-19T06:14:40.468Z,660
2018-08-19T06:15:42.098Z,680
2018-08-19T06:16:43.662Z,688
2018-08-19T06:17:45.318Z,716
2018-08-19T06:18:46.885Z,740
2018-08-19T06:19:48.307Z,784
2018-08-19T06:20:49.740Z,808
2018-08-19T06:21:51.239Z,840
2018-08-19T06:22:52.623Z,884
2018-08-19T06:23:54.067Z,916
2018-08-19T06:24:55.477Z,936
2018-08-19T06:25:57.025Z,976
2018-08-19T06:26:58.689Z,1036
2018-08-19T06:28:00.081Z,1072
2018-08-19T06:29:01.506Z,1092
2018-08-19T06:30:03.045Z,1140
2018-08-19T06:31:04.500Z,1196
2018-08-19T06:32:05.889Z,1260
2018-08-19T06:33:07.359Z,1300
2018-08-19T06:34:08.893Z,1308
2018-08-19T06:35:10.473Z,1380
2018-08-19T06:36:12.065Z,1432
2018-08-19T06:37:13.647Z,1456
2018-08-19T06:38:15.229Z,1528
2018-08-19T06:39:16.945Z,1540
2018-08-19T06:40:18.513Z,1580
2018-08-19T06:41:20.149Z,1624
2018-08-19T06:42:21.706Z,1640
2018-08-19T06:43:23.288Z,1696
2018-08-19T06:44:24.887Z,1708
2018-08-19T06:45:26.501Z,1736
2018-08-19T06:46:28.032Z,1768
2018-08-19T06:47:29.581Z,1768
2018-08-19T06:48:31.182Z,1804
2018-08-19T06:49:32.696Z,1856
2018-08-19T06:50:34.330Z,1888
2018-08-19T06:51:36.723Z,1908
2018-08-19T06:52:38.399Z,1972
2018-08-19T06:53:39.987Z,1940
2018-08-19T06:54:41.511Z,1936
2018-08-19T06:55:43.083Z,1928
2018-08-19T06:56:44.717Z,1968
2018-08-19T06:57:46.284Z,2004
2018-08-19T06:58:47.795Z,2000
2018-08-19T06:59:49.480Z,2040
2018-08-19T07:00:51.024Z,2100
2018-08-19T07:01:52.625Z,2076
2018-08-19T07:02:54.238Z,2112
2018-08-19T07:03:55.855Z,2084
2018-08-19T07:04:57.371Z,2152
2018-08-19T07:05:58.966Z,2144
2018-08-19T07:07:00.520Z,2172
2018-08-19T07:08:02.127Z,2208
2018-08-19T07:09:03.705Z,2260
2018-08-19T07:10:05.259Z,2220
2018-08-19T07:11:06.873Z,2224
2018-08-19T07:12:08.385Z,2324
2018-08-19T07:13:10.118Z,2312
2018-08-19T07:14:11.641Z,2312
2018-08-19T07:15:13.239Z,2340
2018-08-19T07:16:14.809Z,2320
2018-08-19T07:17:16.382Z,2400
2018-08-19T07:18:17.930Z,2400
2018-08-19T07:19:19.577Z,2440
2018-08-19T07:20:21.201Z,2444
2018-08-19T07:21:22.817Z,2496
2018-08-19T07:22:24.371Z,2556
2018-08-19T07:23:25.977Z,2516
2018-08-19T07:24:27.581Z,2572
2018-08-19T07:25:29.118Z,2632
2018-08-19T07:26:30.705Z,2704
2018-08-19T07:27:32.351Z,2708
2018-08-19T07:28:33.924Z,2708
2018-08-19T07:29:35.563Z,2796
2018-08-19T07:30:37.170Z,2856
2018-08-19T07:31:38.775Z,2820
2018-08-19T07:32:40.330Z,2796
2018-08-19T07:33:41.926Z,2672
2018-08-19T07:34:43.518Z,2772
2018-08-19T07:35:45.061Z,2720
2018-08-19T07:36:46.610Z,2684
2018-08-19T07:37:48.149Z,2788
2018-08-19T07:38:49.689Z,2756
2018-08-19T07:39:51.344Z,2740
2018-08-19T07:40:52.956Z,2648
2018-08-19T07:41:54.544Z,2744
2018-08-19T07:42:56.137Z,2972
2018-08-19T07:43:57.754Z,2944
2018-08-19T07:44:59.226Z,3004
2018-08-19T07:46:00.840Z,3040
2018-08-19T07:47:02.356Z,3084
2018-08-19T07:48:03.880Z,3152
2018-08-19T07:49:05.576Z,3252
2018-08-19T07:50:07.181Z,3296
2018-08-19T07:51:08.740Z,3188
2018-08-19T07:52:10.314Z,3384
2018-08-19T07:53:11.933Z,3392
2018-08-19T07:54:13.465Z,3492
2018-08-19T07:55:15.137Z,3484
2018-08-19T07:56:16.645Z,3452
2018-08-19T07:57:18.285Z,3544
2018-08-19T07:58:19.937Z,3620
2018-08-19T07:59:21.476Z,3652
2018-08-19T08:00:23.192Z,3760
2018-08-19T08:01:24.816Z,3584
2018-08-19T08:02:26.304Z,3540
2018-08-19T08:03:27.902Z,3444
2018-08-19T08:04:29.441Z,3756
2018-08-19T08:05:31.022Z,3416
2018-08-19T08:06:32.578Z,3656
2018-08-19T08:07:34.233Z,3700
2018-08-19T08:08:35.850Z,3716
2018-08-19T08:09:37.905Z,3764
2018-08-19T08:10:39.458Z,3772
2018-08-19T08:11:41.129Z,3780
2018-08-19T08:12:42.663Z,3928
2018-08-19T08:13:44.393Z,4172
2018-08-19T08:14:45.851Z,4448
2018-08-19T08:15:47.537Z,4316
2018-08-19T08:16:49.101Z,4004
2018-08-19T08:17:50.715Z,3792
2018-08-19T08:18:52.340Z,3940
2018-08-19T08:19:54.009Z,4160
2018-08-19T08:20:55.676Z,4196
2018-08-19T08:21:57.233Z,4112
2018-08-19T08:22:58.850Z,4212
2018-08-19T08:24:00.583Z,4584
2018-08-19T08:25:02.261Z,4684
2018-08-19T08:26:03.921Z,5056
2018-08-19T08:27:05.477Z,4652
2018-08-19T08:28:07.044Z,2828
2018-08-19T08:29:08.584Z,4808
2018-08-19T08:30:10.251Z,4960
2018-08-19T08:31:11.909Z,5044
2018-08-19T08:32:13.510Z,2552
2018-08-19T08:33:15.091Z,2380
2018-08-19T08:34:16.705Z,2548
2018-08-19T08:35:18.234Z,5548
2018-08-19T08:36:19.788Z,2824
2018-08-19T08:37:21.382Z,3008
2018-08-19T08:38:22.997Z,2952
2018-08-19T08:39:24.638Z,1736
2018-08-19T08:40:26.287Z,3064
2018-08-19T08:41:27.885Z,1944
2018-08-19T08:42:29.456Z,1868
2018-08-19T08:43:31.029Z,2060
2018-08-19T08:44:32.461Z,1796
2018-08-19T08:45:33.950Z,1860
2018-08-19T08:46:35.378Z,1956
2018-08-19T08:47:36.814Z,2196
2018-08-19T08:48:38.484Z,5480
2018-08-19T08:49:39.983Z,2332
2018-08-19T08:50:41.559Z,2732
2018-08-19T08:51:43.140Z,4916
2018-08-19T08:52:44.727Z,2448
2018-08-19T08:53:46.388Z,2668
2018-08-19T08:54:48.029Z,2464
2018-08-19T08:55:49.583Z,2484
2018-08-19T08:56:51.144Z,2524
2018-08-19T08:57:52.710Z,2760
2018-08-19T08:58:54.292Z,5096
2018-08-19T08:59:55.905Z,5728
2018-08-19T09:00:57.466Z,5952
2018-08-19T09:01:59.146Z,3768
2018-08-19T09:03:00.696Z,6268
2018-08-19T09:04:02.260Z,3584
2018-08-19T09:05:03.898Z,3396
2018-08-19T09:06:05.633Z,5680
2018-08-19T09:07:07.183Z,3096
2018-08-19T09:08:08.829Z,4144
2018-08-19T09:09:10.414Z,4036
2018-08-19T09:10:12.113Z,2364
2018-08-19T09:11:13.677Z,3104
2018-08-19T09:12:15.370Z,2512
2018-08-19T09:13:17.019Z,2724
2018-08-19T09:14:18.715Z,3044
2018-08-19T09:15:20.334Z,2820
2018-08-19T09:16:22.000Z,2904
2018-08-19T09:17:23.604Z,3008
2018-08-19T09:18:25.212Z,5968
2018-08-19T09:19:26.863Z,2900
2018-08-19T09:20:28.401Z,10012
2018-08-19T09:21:30.110Z,3624
2018-08-19T09:22:31.708Z,3804
2018-08-19T09:23:33.323Z,3432
2018-08-19T09:24:34.977Z,2916
2018-08-19T09:25:36.594Z,3404
2018-08-19T09:26:38.154Z,4080
2018-08-19T09:27:39.732Z,3072
2018-08-19T09:28:41.408Z,2840
2018-08-19T09:29:42.968Z,3088
2018-08-19T09:30:44.454Z,3276
2018-08-19T09:31:46.069Z,3136
2018-08-19T09:32:47.701Z,3228
2018-08-19T09:33:49.297Z,3268
2018-08-19T09:34:50.895Z,3352
2018-08-19T09:35:52.467Z,3920
2018-08-19T09:36:54.139Z,3780
2018-08-19T09:37:55.649Z,3820
2018-08-19T09:38:57.275Z,3392
2018-08-19T09:39:58.799Z,3776
2018-08-19T09:41:00.404Z,4004
2018-08-19T09:42:01.986Z,3684
2018-08-19T09:43:03.619Z,2964
2018-08-19T09:44:05.224Z,2608
2018-08-19T09:45:06.824Z,2544
2018-08-19T09:46:08.428Z,2560
2018-08-19T09:47:09.984Z,2764
2018-08-19T09:48:11.581Z,2704
2018-08-19T09:49:13.300Z,2700
2018-08-19T09:50:14.868Z,2860
2018-08-19T09:51:16.481Z,3520
2018-08-19T09:52:18.135Z,3872
2018-08-19T09:53:19.749Z,3948
2018-08-19T09:54:21.367Z,4416
2018-08-19T09:55:22.943Z,4168
2018-08-19T09:56:24.757Z,3776
2018-08-19T09:57:26.383Z,4476
2018-08-19T09:58:27.992Z,3640
2018-08-19T09:59:29.473Z,3560
2018-08-19T10:00:31.012Z,3952
2018-08-19T10:01:32.507Z,4272
2018-08-19T10:02:34.121Z,3700
2018-08-19T10:03:35.695Z,3356
2018-08-19T10:04:37.351Z,4492
2018-08-19T10:05:39.026Z,4140
2018-08-19T10:06:40.590Z,3112
2018-08-19T10:07:42.134Z,3356
2018-08-19T10:08:43.755Z,3360
2018-08-19T10:09:45.367Z,3104
2018-08-19T10:10:47.034Z,2984
2018-08-19T10:11:48.637Z,3056
2018-08-19T10:12:50.242Z,2736
2018-08-19T10:13:51.786Z,2872
2018-08-19T10:14:53.331Z,4196
2018-08-19T10:15:54.974Z,2928
2018-08-19T10:16:56.601Z,3056
2018-08-19T10:17:58.172Z,5108
2018-08-19T10:18:59.822Z,5056
2018-08-19T10:20:01.577Z,4496
2018-08-19T10:21:03.118Z,4496
2018-08-19T10:22:04.747Z,4336
2018-08-19T10:23:06.431Z,6356
2018-08-19T10:24:08.090Z,12928
2018-08-19T10:25:09.619Z,22624
2018-08-19T10:26:11.305Z,23872
2018-08-19T10:27:12.901Z,23840
2018-08-19T10:28:14.406Z,18272
2018-08-19T10:29:15.912Z,20768
2018-08-19T10:30:17.467Z,15616
2018-08-19T10:31:19.130Z,6832
2018-08-19T10:32:20.718Z,3868
2018-08-19T10:33:22.290Z,3872
2018-08-19T10:34:23.864Z,3748
2018-08-19T10:35:25.425Z,3792
2018-08-19T10:36:26.996Z,3788
2018-08-19T10:37:28.661Z,3720
2018-08-19T10:38:30.187Z,3676
2018-08-19T10:39:31.742Z,3544
2018-08-19T10:40:33.342Z,3404
2018-08-19T10:41:34.891Z,3432
2018-08-19T10:42:36.457Z,3428
2018-08-19T10:43:38.156Z,3668
2018-08-19T10:44:39.785Z,3728
2018-08-19T10:45:41.344Z,3520
2018-08-19T10:46:42.906Z,3324
2018-08-19T10:47:44.484Z,2372
2018-08-19T10:48:46.146Z,3872
2018-08-19T10:49:48.673Z,3572
2018-08-19T10:50:51.033Z,3184
2018-08-19T10:51:52.800Z,3084
2018-08-19T10:52:54.442Z,3096
2018-08-19T10:53:55.984Z,3136
2018-08-19T10:54:57.538Z,3432
2018-08-19T10:55:59.182Z,4400
2018-08-19T10:57:00.804Z,3644
2018-08-19T10:58:02.354Z,3220
2018-08-19T10:59:04.101Z,3236
2018-08-19T11:00:05.689Z,3200
2018-08-19T11:01:07.083Z,3084
2018-08-19T11:02:08.775Z,3080
2018-08-19T11:03:10.364Z,3148
2018-08-19T11:04:11.911Z,3220
2018-08-19T11:05:13.673Z,3124
2018-08-19T11:06:15.328Z,3124
2018-08-19T11:07:16.953Z,3280
2018-08-19T11:08:18.467Z,3516
2018-08-19T11:09:20.059Z,3588
2018-08-19T11:10:21.565Z,3848
2018-08-19T11:11:23.415Z,4168
2018-08-19T11:12:25.018Z,4756
2018-08-19T11:13:26.727Z,4888
2018-08-19T11:14:28.492Z,4876
2018-08-19T11:15:30.041Z,4384
2018-08-19T11:16:31.615Z,4528
2018-08-19T11:17:33.102Z,4724
2018-08-19T11:18:34.700Z,4860
2018-08-19T11:19:36.097Z,4752
2018-08-19T11:20:37.982Z,4608
2018-08-19T11:21:39.744Z,4612
2018-08-19T11:22:41.334Z,4472
2018-08-19T11:23:43.222Z,4408
2018-08-19T11:24:44.800Z,4268
2018-08-19T11:25:46.399Z,4136
2018-08-19T11:26:48.072Z,3948
2018-08-19T11:27:49.751Z,3884
2018-08-19T11:28:51.564Z,3640
2018-08-19T11:29:52.985Z,3372
2018-08-19T11:30:54.450Z,3216
2018-08-19T11:31:56.113Z,3084
2018-08-19T11:32:57.565Z,3004
2018-08-19T11:33:59.073Z,2992
2018-08-19T11:35:00.619Z,2992
2018-08-19T11:36:02.099Z,2904
2018-08-19T11:37:03.612Z,2724
2018-08-19T11:38:05.527Z,2684
2018-08-19T11:39:07.074Z,2688
2018-08-19T11:40:08.654Z,2792
2018-08-19T11:41:10.145Z,2956
2018-08-19T11:42:11.614Z,3092
2018-08-19T11:43:13.119Z,3188
2018-08-19T11:44:14.514Z,3152
2018-08-19T11:45:16.004Z,3120
2018-08-19T11:46:17.665Z,3236
2018-08-19T11:47:19.251Z,3488
2018-08-19T11:48:20.806Z,3508
2018-08-19T11:49:22.514Z,3732
2018-08-19T11:50:24.074Z,3892
2018-08-19T11:51:25.542Z,4248
2018-08-19T11:52:27.242Z,4252
2018-08-19T11:53:28.706Z,4428
2018-08-19T11:54:30.463Z,4384
2018-08-19T11:55:32.001Z,5020
2018-08-19T11:56:33.786Z,5004
2018-08-19T11:57:35.431Z,4544
2018-08-19T11:58:37.123Z,4236
2018-08-19T11:59:38.816Z,4032
2018-08-19T12:00:40.772Z,3828
2018-08-19T12:01:42.249Z,3704
2018-08-19T12:02:43.738Z,3560
2018-08-19T12:03:45.212Z,3492
2018-08-19T12:04:46.948Z,3372
2018-08-19T12:05:48.425Z,3316
2018-08-19T12:06:50.111Z,3268
2018-08-19T12:07:51.607Z,3276
2018-08-19T12:08:53.338Z,3132
2018-08-19T12:09:54.791Z,3148
2018-08-19T12:10:56.403Z,3188
2018-08-19T12:11:57.887Z,3000
2018-08-19T12:12:59.930Z,2836
2018-08-19T12:14:01.528Z,2804
2018-08-19T12:15:03.224Z,2672
2018-08-19T12:16:04.810Z,2488
2018-08-19T12:17:06.766Z,2308
2018-08-19T12:18:08.258Z,2252
2018-08-19T12:19:10.028Z,2200
2018-08-19T12:20:11.735Z,2140
2018-08-19T12:21:13.879Z,2068
2018-08-19T12:22:16.040Z,1988
2018-08-19T12:23:17.551Z,1980
2018-08-19T12:24:19.488Z,1936
2018-08-19T12:25:21.210Z,1916
2018-08-19T12:26:22.763Z,1892
2018-08-19T12:27:24.541Z,1812
2018-08-19T12:28:26.404Z,1832
2018-08-19T12:29:28.145Z,1788
2018-08-19T12:30:29.845Z,1740
2018-08-19T12:31:31.759Z,1700
2018-08-19T12:32:33.556Z,1680
2018-08-19T12:33:35.070Z,1648
2018-08-19T12:34:36.764Z,1616
2018-08-19T12:35:38.455Z,1600
2018-08-19T12:36:39.936Z,1584
2018-08-19T12:37:41.844Z,1560
2018-08-19T12:38:43.415Z,1520
2018-08-19T12:39:45.223Z,1496
2018-08-19T12:40:46.776Z,1436
2018-08-19T12:41:48.884Z,1432
2018-08-19T12:42:50.593Z,1388
2018-08-19T12:43:52.137Z,1352
2018-08-19T12:44:54.526Z,1304
2018-08-19T12:45:56.245Z,1272
2018-08-19T13:57:08.381Z,532
2018-08-19T13:58:09.747Z,532
2018-08-19T13:59:11.160Z,516
2018-08-19T14:00:12.844Z,520
2018-08-19T14:01:14.255Z,516
2018-08-19T14:02:15.701Z,512
2018-08-19T14:03:17.385Z,508
2018-08-19T14:04:18.815Z,508
2018-08-19T14:05:20.403Z,504
2018-08-19T14:06:22.339Z,504
2018-08-19T14:07:25.253Z,492
2018-08-19T14:08:27.891Z,488
2018-08-19T14:09:29.468Z,484
2018-08-19T14:10:31.589Z,492
2018-08-19T14:11:33.156Z,488
2018-08-19T14:12:35.421Z,480
2018-08-19T14:13:37.047Z,484
2018-08-19T14:14:38.663Z,480
2018-08-19T14:15:41.779Z,476
2018-08-19T14:16:43.265Z,468
2018-08-19T14:17:48.138Z,464
2018-08-19T14:18:49.345Z,460
2018-08-19T14:19:50.933Z,452
2018-08-19T14:20:52.774Z,452
2018-08-19T14:21:54.552Z,444
2018-08-19T14:22:56.164Z,436
2018-08-19T14:23:57.795Z,428
2018-08-19T14:24:59.402Z,424
2018-08-19T14:26:00.971Z,424
2018-08-19T14:27:02.888Z,416
2018-08-19T14:28:04.447Z,420
2018-08-19T14:29:05.910Z,432
2018-08-19T14:30:07.691Z,416
2018-08-19T14:31:09.213Z,412
2018-08-19T14:32:10.623Z,412
2018-08-19T14:33:12.460Z,408
2018-08-19T14:34:14.003Z,404
2018-08-19T14:35:15.436Z,400
2018-08-19T14:36:17.015Z,400
2018-08-19T14:37:18.599Z,396
2018-08-19T14:38:20.093Z,396
2018-08-19T14:39:21.992Z,388
2018-08-19T14:40:23.657Z,388
2018-08-19T14:41:25.256Z,384
2018-08-19T14:42:27.010Z,376
2018-08-19T14:43:28.682Z,372
2018-08-19T14:44:30.222Z,376
2018-08-19T14:45:32.056Z,376
2018-08-19T14:46:33.490Z,372
2018-08-19T14:47:35.106Z,372
2018-08-19T14:48:36.872Z,372
2018-08-19T14:49:38.576Z,372
2018-08-19T14:50:40.075Z,376
2018-08-19T14:51:41.890Z,376
2018-08-19T14:52:43.463Z,380
2018-08-19T14:53:45.118Z,376
2018-08-19T14:54:46.810Z,364
2018-08-19T14:55:48.417Z,364
2018-08-19T14:56:49.942Z,356
2018-08-19T14:57:51.506Z,352
2018-08-19T14:58:53.480Z,352
2018-08-19T14:59:55.181Z,352
2018-08-19T15:00:57.104Z,356
2018-08-19T15:01:58.670Z,352
2018-08-19T15:03:00.390Z,352
2018-08-19T15:04:02.033Z,348
2018-08-19T15:05:03.642Z,344
2018-08-19T15:06:05.279Z,340
2018-08-19T15:07:06.858Z,340
2018-08-19T15:08:08.420Z,332
2018-08-19T15:09:10.237Z,332
2018-08-19T15:10:11.902Z,328
2018-08-19T15:11:13.509Z,328
2018-08-19T15:12:15.119Z,324
2018-08-19T15:13:16.932Z,320
2018-08-19T15:14:18.523Z,320
2018-08-19T15:15:20.364Z,320
2018-08-19T15:16:21.899Z,316
2018-08-19T15:17:23.553Z,312
2018-08-19T15:18:25.263Z,308
2018-08-19T15:19:27.022Z,304
2018-08-19T15:20:28.574Z,300
2018-08-19T15:21:30.334Z,296
2018-08-19T15:22:31.887Z,292
2018-08-19T15:23:33.715Z,292
2018-08-19T15:24:35.263Z,292